createdAt,value
2019-03-18T00:00:13.331Z,21.23
2019-03-18T00:02:41.711Z,21.24
2019-03-18T00:05:10.165Z,21.24
2019-03-18T00:07:38.676Z,21.25
2019-03-18T00:10:08.402Z,21.25
2019-03-18T00:12:36.789Z,21.25
2019-03-18T00:15:09.704Z,21.26
2019-03-18T00:17:38.666Z,21.26
2019-03-18T00:20:08.904Z,21.27
2019-03-18T00:22:37.279Z,21.28
2019-03-18T00:25:08.136Z,21.30
2019-03-18T00:27:36.521Z,21.30
2019-03-18T00:30:11.005Z,21.31
2019-03-18T00:32:39.398Z,21.32
2019-03-18T00:35:08.876Z,21.35
2019-03-18T00:37:37.261Z,21.34
2019-03-18T00:40:08.905Z,21.35
2019-03-18T00:42:37.276Z,21.37
2019-03-18T00:45:14.610Z,21.37
2019-03-18T00:47:37.410Z,21.37
2019-03-18T00:50:15.988Z,21.36
2019-03-18T00:52:44.905Z,21.38
2019-03-18T00:55:13.416Z,21.38
2019-03-18T00:57:41.793Z,21.38
2019-03-18T01:00:17.487Z,21.39
2019-03-18T01:02:45.862Z,21.41
2019-03-18T01:05:14.510Z,21.40
2019-03-18T01:07:42.895Z,21.42
2019-03-18T01:10:13.673Z,21.44
2019-03-18T01:12:42.044Z,21.45
2019-03-18T01:15:11.263Z,21.46
2019-03-18T01:17:39.650Z,21.46
2019-03-18T01:20:10.716Z,21.46
2019-03-18T01:22:39.098Z,21.48
2019-03-18T01:25:09.023Z,21.48
2019-03-18T01:27:37.387Z,21.49
2019-03-18T01:30:10.750Z,21.46
2019-03-18T01:32:39.173Z,21.46
2019-03-18T01:35:09.867Z,21.51
2019-03-18T01:37:39.180Z,21.52
2019-03-18T01:40:09.800Z,21.52
2019-03-18T01:42:39.228Z,21.54
2019-03-18T01:45:08.335Z,21.56
2019-03-18T01:47:36.797Z,21.56
2019-03-18T01:50:08.622Z,21.56
2019-03-18T01:52:37.005Z,21.58
2019-03-18T01:55:06.731Z,21.58
2019-03-18T01:57:35.112Z,21.58
2019-03-18T02:00:04.568Z,21.59
2019-03-18T02:02:32.954Z,21.60
2019-03-18T02:05:01.337Z,21.60
2019-03-18T02:07:29.723Z,21.61
2019-03-18T02:09:58.081Z,21.60
2019-03-18T02:12:26.464Z,21.61
2019-03-18T02:14:54.835Z,21.59
2019-03-18T02:17:23.209Z,21.61
2019-03-18T02:19:51.585Z,21.62
2019-03-18T02:22:19.960Z,21.63
2019-03-18T02:24:48.324Z,21.62
2019-03-18T02:27:16.708Z,21.64
2019-03-18T02:29:45.079Z,21.61
2019-03-18T02:32:13.463Z,21.65
2019-03-18T02:34:41.817Z,21.65
2019-03-18T02:37:10.189Z,21.64
2019-03-18T02:39:39.607Z,21.63
2019-03-18T02:42:07.992Z,21.63
2019-03-18T02:44:36.361Z,21.64
2019-03-18T02:47:04.741Z,21.64
2019-03-18T02:49:33.103Z,21.64
2019-03-18T02:52:01.461Z,21.62
2019-03-18T02:54:29.927Z,21.62
2019-03-18T02:56:58.300Z,21.64
2019-03-18T02:59:26.672Z,21.63
2019-03-18T03:01:55.947Z,21.63
2019-03-18T03:04:24.357Z,21.63
2019-03-18T03:06:52.716Z,21.59
2019-03-18T03:09:21.117Z,21.62
2019-03-18T03:11:49.460Z,21.62
2019-03-18T03:14:17.841Z,21.63
2019-03-18T03:16:46.275Z,21.64
2019-03-18T03:19:14.648Z,21.63
2019-03-18T03:21:43.030Z,21.63
2019-03-18T03:24:11.393Z,21.62
2019-03-18T03:26:40.036Z,21.62
2019-03-18T03:29:08.415Z,21.62
2019-03-18T03:31:36.780Z,21.62
2019-03-18T03:34:05.180Z,21.63
2019-03-18T03:36:33.531Z,21.61
2019-03-18T03:39:01.912Z,21.60
2019-03-18T03:41:30.607Z,21.60
2019-03-18T03:43:58.982Z,21.60
2019-03-18T03:46:42.300Z,21.59
2019-03-18T03:48:57.455Z,21.59
2019-03-18T03:51:25.814Z,21.60
2019-03-18T03:53:54.255Z,21.59
2019-03-18T03:56:22.798Z,21.58
2019-03-18T03:58:51.301Z,21.59
2019-03-18T04:01:19.740Z,21.57
2019-03-18T04:03:48.113Z,21.57
2019-03-18T04:06:16.502Z,21.58
2019-03-18T04:08:45.301Z,21.57
2019-03-18T04:11:15.402Z,21.55
2019-03-18T04:13:43.760Z,21.56
2019-03-18T04:16:12.136Z,21.56
2019-03-18T04:18:40.502Z,21.55
2019-03-18T04:21:09.038Z,21.55
2019-03-18T04:23:37.421Z,21.54
2019-03-18T04:26:06.149Z,21.54
2019-03-18T04:28:34.520Z,21.54
2019-03-18T04:31:02.900Z,21.52
2019-03-18T04:33:31.267Z,21.52
2019-03-18T04:35:59.634Z,21.53
2019-03-18T04:38:27.998Z,21.53
2019-03-18T04:40:56.361Z,21.52
2019-03-18T04:43:24.732Z,21.52
2019-03-18T04:45:53.097Z,21.51
2019-03-18T04:48:21.479Z,21.51
2019-03-18T04:50:49.863Z,21.52
2019-03-18T04:53:18.233Z,21.51
2019-03-18T04:55:46.829Z,21.52
2019-03-18T04:58:15.205Z,21.52
2019-03-18T05:00:43.584Z,21.52
2019-03-18T05:03:13.003Z,21.51
2019-03-18T05:05:41.368Z,21.51
2019-03-18T05:08:09.740Z,21.50
2019-03-18T05:10:38.115Z,21.49
2019-03-18T05:13:06.488Z,21.51
2019-03-18T05:15:34.861Z,21.50
2019-03-18T05:18:03.234Z,21.48
2019-03-18T05:20:31.603Z,21.49
2019-03-18T05:22:59.982Z,21.50
2019-03-18T05:25:28.340Z,21.51
2019-03-18T05:27:56.719Z,21.48
2019-03-18T05:30:25.088Z,21.47
2019-03-18T05:32:53.467Z,21.47
2019-03-18T05:35:21.837Z,21.46
2019-03-18T05:37:50.215Z,21.46
2019-03-18T05:40:18.581Z,21.46
2019-03-18T05:42:46.958Z,21.45
2019-03-18T05:45:15.335Z,21.46
2019-03-18T05:47:43.703Z,21.46
2019-03-18T05:50:12.614Z,21.47
2019-03-18T05:52:41.341Z,21.46
2019-03-18T05:55:10.349Z,21.46
2019-03-18T05:57:38.735Z,21.44
2019-03-18T06:00:12.158Z,21.45
2019-03-18T06:02:41.471Z,21.44
2019-03-18T06:05:10.095Z,21.44
2019-03-18T06:07:38.456Z,21.43
2019-03-18T06:10:09.908Z,21.44
2019-03-18T06:12:38.275Z,21.44
2019-03-18T06:15:09.097Z,21.44
2019-03-18T06:17:37.467Z,21.44
2019-03-18T06:20:11.611Z,21.41
2019-03-18T06:22:40.050Z,21.41
2019-03-18T06:25:09.266Z,21.43
2019-03-18T06:27:37.628Z,21.42
2019-03-18T06:30:16.634Z,21.42
2019-03-18T06:32:44.989Z,21.40
2019-03-18T06:35:13.370Z,21.43
2019-03-18T06:37:41.746Z,21.39
2019-03-18T06:40:14.242Z,21.39
2019-03-18T06:42:42.614Z,21.39
2019-03-18T06:45:11.928Z,21.38
2019-03-18T06:47:40.289Z,21.39
2019-03-18T06:50:10.308Z,21.39
2019-03-18T06:52:38.677Z,21.39
2019-03-18T06:55:07.290Z,21.38
2019-03-18T06:57:35.675Z,21.40
2019-03-18T07:00:07.030Z,21.37
2019-03-18T07:02:35.448Z,21.36
2019-03-18T07:05:04.659Z,21.37
2019-03-18T07:07:33.084Z,21.37
2019-03-18T07:10:01.461Z,21.37
2019-03-18T07:12:29.822Z,21.37
2019-03-18T07:14:58.196Z,21.37
2019-03-18T07:17:26.558Z,21.36
2019-03-18T07:19:54.928Z,21.37
2019-03-18T07:22:23.362Z,21.37
2019-03-18T07:24:51.676Z,21.35
2019-03-18T07:27:20.040Z,21.34
2019-03-18T07:29:48.431Z,21.34
2019-03-18T07:32:16.785Z,21.35
2019-03-18T07:34:45.270Z,21.33
2019-03-18T07:37:13.634Z,21.33
2019-03-18T07:39:42.006Z,21.33
2019-03-18T07:42:11.363Z,21.33
2019-03-18T07:44:39.733Z,21.33
2019-03-18T07:47:08.102Z,21.33
2019-03-18T07:49:36.473Z,21.33
2019-03-18T07:52:04.852Z,21.33
2019-03-18T07:54:33.385Z,21.32
2019-03-18T07:57:01.771Z,21.32
2019-03-18T07:59:30.141Z,21.32
2019-03-18T08:01:58.514Z,21.30
2019-03-18T08:04:36.905Z,21.33
2019-03-18T08:06:56.977Z,21.32
2019-03-18T08:09:25.345Z,21.32
2019-03-18T08:11:53.720Z,21.31
2019-03-18T08:14:22.081Z,21.31
2019-03-18T08:16:50.459Z,21.31
2019-03-18T08:19:18.815Z,21.31
2019-03-18T08:21:47.222Z,21.30
2019-03-18T08:24:15.582Z,21.29
2019-03-18T08:26:43.965Z,21.30
2019-03-18T08:29:12.335Z,21.29
2019-03-18T08:31:40.710Z,21.30
2019-03-18T08:34:09.078Z,21.29
2019-03-18T08:36:37.479Z,21.28
2019-03-18T08:39:07.185Z,21.30
2019-03-18T08:41:35.565Z,21.30
2019-03-18T08:44:03.999Z,21.29
2019-03-18T08:46:32.373Z,21.32
2019-03-18T08:49:00.733Z,21.32
2019-03-18T08:51:29.105Z,21.29
2019-03-18T08:53:57.471Z,21.28
2019-03-18T08:56:25.841Z,21.28
2019-03-18T08:58:54.211Z,21.27
2019-03-18T09:01:22.584Z,21.27
2019-03-18T09:03:50.956Z,21.29
2019-03-18T09:06:19.337Z,21.29
2019-03-18T09:08:47.700Z,21.30
2019-03-18T09:11:16.086Z,21.31
2019-03-18T09:13:44.462Z,21.30
2019-03-18T09:16:12.851Z,21.31
2019-03-18T09:18:41.216Z,21.33
2019-03-18T09:21:09.583Z,21.32
2019-03-18T09:23:37.959Z,21.32
2019-03-18T09:26:06.318Z,21.32
2019-03-18T09:28:34.692Z,21.32
2019-03-18T09:31:03.060Z,21.33
2019-03-18T09:33:31.432Z,21.34
2019-03-18T09:35:59.811Z,21.35
2019-03-18T09:38:28.201Z,21.34
2019-03-18T09:40:56.570Z,21.37
2019-03-18T09:43:24.935Z,21.38
2019-03-18T09:45:54.546Z,21.37
2019-03-18T09:48:23.157Z,21.40
2019-03-18T09:50:51.547Z,21.44
2019-03-18T09:53:19.923Z,21.58
2019-03-18T09:55:48.284Z,21.74
2019-03-18T09:58:16.659Z,21.84
2019-03-18T10:00:45.022Z,21.89
2019-03-18T10:03:13.396Z,21.90
2019-03-18T10:05:43.970Z,22.03
2019-03-18T10:08:11.865Z,22.31
2019-03-18T10:10:40.229Z,22.51
2019-03-18T10:13:08.609Z,22.73
2019-03-18T10:15:36.966Z,22.72
2019-03-18T10:18:05.340Z,22.63
2019-03-18T10:20:33.710Z,22.52
2019-03-18T10:23:03.138Z,22.43
2019-03-18T10:25:31.537Z,22.44
2019-03-18T10:27:59.917Z,22.46
2019-03-18T10:30:28.414Z,22.60
2019-03-18T10:32:56.793Z,22.63
2019-03-18T10:35:25.160Z,22.64
2019-03-18T10:37:53.536Z,22.96
2019-03-18T10:40:21.915Z,23.26
2019-03-18T10:42:50.275Z,24.00
2019-03-18T10:45:18.709Z,24.24
2019-03-18T10:47:47.258Z,23.89
2019-03-18T10:50:16.863Z,23.57
2019-03-18T10:52:45.258Z,24.38
2019-03-18T10:55:13.869Z,24.65
2019-03-18T10:57:42.301Z,24.43
2019-03-18T11:00:18.388Z,24.00
2019-03-18T11:02:46.816Z,23.73
2019-03-18T11:05:15.378Z,23.98
2019-03-18T11:07:43.885Z,24.26
2019-03-18T11:10:16.509Z,23.84
2019-03-18T11:12:44.883Z,23.52
2019-03-18T11:15:15.541Z,23.26
2019-03-18T11:17:43.907Z,23.11
2019-03-18T11:20:14.298Z,23.02
2019-03-18T11:22:42.655Z,22.94
2019-03-18T11:25:12.165Z,22.90
2019-03-18T11:27:40.521Z,22.91
2019-03-18T11:30:11.737Z,22.94
2019-03-18T11:32:40.098Z,22.86
2019-03-18T11:35:08.640Z,22.78
2019-03-18T11:37:37.000Z,22.70
2019-03-18T11:40:21.648Z,22.64
2019-03-18T11:42:50.435Z,22.60
2019-03-18T11:45:18.928Z,22.55
2019-03-18T11:47:47.288Z,22.52
2019-03-18T11:50:19.698Z,22.50
2019-03-18T11:52:48.058Z,22.46
2019-03-18T11:55:17.879Z,22.45
2019-03-18T11:57:46.276Z,22.42
2019-03-18T12:00:20.349Z,22.39
2019-03-18T12:02:48.699Z,22.36
2019-03-18T12:05:22.014Z,22.36
2019-03-18T12:07:50.375Z,22.34
2019-03-18T12:10:20.735Z,22.30
2019-03-18T12:12:49.163Z,22.30
2019-03-18T12:15:27.471Z,22.28
2019-03-18T12:17:55.832Z,22.28
2019-03-18T12:20:25.622Z,22.27
2019-03-18T12:22:55.719Z,22.24
2019-03-18T12:25:24.135Z,22.22
2019-03-18T12:27:52.500Z,22.19
2019-03-18T12:30:21.615Z,22.19
2019-03-18T12:32:50.046Z,22.20
2019-03-18T12:35:18.536Z,22.20
2019-03-18T12:37:46.965Z,22.19
2019-03-18T12:40:16.094Z,22.19
2019-03-18T12:42:44.785Z,22.19
2019-03-18T12:45:18.135Z,22.18
2019-03-18T12:47:46.651Z,22.18
2019-03-18T12:50:17.136Z,22.17
2019-03-18T12:52:45.609Z,22.16
2019-03-18T12:55:14.414Z,22.19
2019-03-18T12:57:42.924Z,22.20
2019-03-18T13:00:19.626Z,22.20
2019-03-18T13:02:48.229Z,22.20
2019-03-18T13:05:16.665Z,22.22
2019-03-18T13:07:45.102Z,22.22
2019-03-18T13:10:16.064Z,22.21
2019-03-18T13:12:44.493Z,22.20
2019-03-18T13:15:15.909Z,22.20
2019-03-18T13:17:44.349Z,22.21
2019-03-18T13:20:15.189Z,22.21
2019-03-18T13:22:43.573Z,22.19
2019-03-18T13:25:12.768Z,22.19
2019-03-18T13:27:41.483Z,22.18
2019-03-18T13:30:21.030Z,22.16
2019-03-18T13:32:49.487Z,22.17
2019-03-18T13:35:17.858Z,22.17
2019-03-18T13:37:46.292Z,22.14
2019-03-18T13:40:18.621Z,22.15
2019-03-18T13:42:47.032Z,22.14
2019-03-18T13:45:19.973Z,22.14
2019-03-18T13:47:48.615Z,22.12
2019-03-18T13:50:19.174Z,22.11
2019-03-18T13:52:47.527Z,22.10
2019-03-18T13:55:15.971Z,22.09
2019-03-18T13:57:44.345Z,22.08
2019-03-18T14:00:21.340Z,22.07
2019-03-18T14:02:49.880Z,22.06
2019-03-18T14:05:18.246Z,22.05
2019-03-18T14:07:58.914Z,22.06
2019-03-18T14:10:19.770Z,22.05
2019-03-18T14:12:48.142Z,22.05
2019-03-18T14:15:22.132Z,22.05
2019-03-18T14:17:50.672Z,22.04
2019-03-18T14:20:29.494Z,22.01
2019-03-18T14:22:57.870Z,22.02
2019-03-18T14:25:26.233Z,22.02
2019-03-18T14:27:54.607Z,21.99
2019-03-18T14:30:23.526Z,21.99
2019-03-18T14:32:51.901Z,21.99
2019-03-18T14:35:21.617Z,21.99
2019-03-18T14:37:50.393Z,21.99
2019-03-18T14:40:20.130Z,21.98
2019-03-18T14:42:48.470Z,21.99
2019-03-18T14:45:20.474Z,21.99
2019-03-18T14:47:48.851Z,21.99
2019-03-18T14:50:18.349Z,21.98
2019-03-18T14:52:46.727Z,21.98
2019-03-18T14:55:16.128Z,22.00
2019-03-18T14:57:44.507Z,21.99
2019-03-18T15:00:20.981Z,21.98
2019-03-18T15:02:49.357Z,21.97
2019-03-18T15:05:17.872Z,21.98
2019-03-18T15:07:46.302Z,21.98
2019-03-18T15:10:16.976Z,21.97
2019-03-18T15:12:45.353Z,21.98
2019-03-18T15:15:15.458Z,21.98
2019-03-18T15:17:43.865Z,21.98
2019-03-18T15:20:15.966Z,21.99
2019-03-18T15:22:44.328Z,22.00
2019-03-18T15:25:15.280Z,22.01
2019-03-18T15:27:43.654Z,22.01
2019-03-18T15:30:17.575Z,22.03
2019-03-18T15:32:46.006Z,22.05
2019-03-18T15:35:15.221Z,22.07
2019-03-18T15:37:43.589Z,22.08
2019-03-18T15:40:14.601Z,22.07
2019-03-18T15:42:43.046Z,22.09
2019-03-18T15:45:13.969Z,22.08
2019-03-18T15:47:42.406Z,22.08
2019-03-18T15:50:13.829Z,22.11
2019-03-18T15:52:42.257Z,22.14
2019-03-18T15:55:10.708Z,22.12
2019-03-18T15:57:39.090Z,22.14
2019-03-18T16:00:15.781Z,22.13
2019-03-18T16:02:44.307Z,22.13
2019-03-18T16:05:12.827Z,22.12
2019-03-18T16:07:41.195Z,22.09
2019-03-18T16:10:12.013Z,22.08
2019-03-18T16:12:40.465Z,22.06
2019-03-18T16:15:11.196Z,22.06
2019-03-18T16:17:41.572Z,22.05
2019-03-18T16:20:14.792Z,22.03
2019-03-18T16:22:43.221Z,22.01
2019-03-18T16:25:12.664Z,22.00
2019-03-18T16:27:41.028Z,22.01
2019-03-18T16:30:14.585Z,21.98
2019-03-18T16:32:43.041Z,21.99
2019-03-18T16:35:15.930Z,21.99
2019-03-18T16:37:43.774Z,21.99
2019-03-18T16:40:14.444Z,21.98
2019-03-18T16:42:43.152Z,21.97
2019-03-18T16:45:15.848Z,21.97
2019-03-18T16:47:44.216Z,21.98
2019-03-18T16:50:15.629Z,21.97
2019-03-18T16:52:44.216Z,21.97
2019-03-18T16:55:12.822Z,21.98
2019-03-18T16:57:41.177Z,21.99
2019-03-18T17:00:15.394Z,21.99
2019-03-18T17:02:44.017Z,22.02
2019-03-18T17:05:12.384Z,22.00
2019-03-18T17:07:40.848Z,22.02
2019-03-18T17:10:13.692Z,22.01
2019-03-18T17:12:42.193Z,21.97
2019-03-18T17:15:14.598Z,21.95
2019-03-18T17:17:43.047Z,21.95
2019-03-18T17:20:12.871Z,21.94
2019-03-18T17:22:48.974Z,21.95
2019-03-18T17:25:28.537Z,21.95
2019-03-18T17:27:56.995Z,21.95
2019-03-18T17:30:26.816Z,21.94
2019-03-18T17:32:55.621Z,21.91
2019-03-18T17:35:24.279Z,21.90
2019-03-18T17:37:52.719Z,21.91
2019-03-18T17:40:22.115Z,21.91
2019-03-18T17:42:50.550Z,21.90
2019-03-18T17:45:19.721Z,21.90
2019-03-18T17:47:48.094Z,21.88
2019-03-18T17:50:21.302Z,21.86
2019-03-18T17:53:01.817Z,21.86
2019-03-18T17:55:19.910Z,21.86
2019-03-18T17:57:48.629Z,21.85
2019-03-18T18:00:37.474Z,21.86
2019-03-18T18:03:06.142Z,21.85
2019-03-18T18:05:34.506Z,21.84
2019-03-18T18:08:02.880Z,21.82
2019-03-18T18:10:31.249Z,21.84
2019-03-18T18:12:59.621Z,21.82
2019-03-18T18:15:27.992Z,21.83
2019-03-18T18:17:56.370Z,21.81
2019-03-18T18:20:24.729Z,21.82
2019-03-18T18:22:53.122Z,21.82
2019-03-18T18:25:21.595Z,21.82
2019-03-18T18:27:50.022Z,21.81
2019-03-18T18:30:19.038Z,21.80
2019-03-18T18:32:47.467Z,21.81
2019-03-18T18:35:15.826Z,21.79
2019-03-18T18:37:44.194Z,21.80
2019-03-18T18:40:29.079Z,21.76
2019-03-18T18:42:57.619Z,21.79
2019-03-18T18:45:26.054Z,21.78
2019-03-18T18:47:54.421Z,21.75
2019-03-18T18:50:22.860Z,21.77
2019-03-18T18:52:51.225Z,21.76
2019-03-18T18:55:19.682Z,21.78
2019-03-18T18:57:48.060Z,21.78
2019-03-18T19:00:20.491Z,21.75
2019-03-18T19:02:48.952Z,21.77
2019-03-18T19:05:17.848Z,21.73
2019-03-18T19:07:46.219Z,21.74
2019-03-18T19:10:17.706Z,21.75
2019-03-18T19:12:46.086Z,21.74
2019-03-18T19:15:31.925Z,21.74
2019-03-18T19:18:00.371Z,21.72
2019-03-18T19:20:28.733Z,21.71
2019-03-18T19:22:57.118Z,21.68
2019-03-18T19:25:25.480Z,21.68
2019-03-18T19:27:53.851Z,21.70
2019-03-18T19:30:23.063Z,21.69
2019-03-18T19:32:51.508Z,21.67
2019-03-18T19:35:19.958Z,21.63
2019-03-18T19:37:48.327Z,21.64
2019-03-18T19:40:23.204Z,21.62
2019-03-18T19:42:51.672Z,21.61
2019-03-18T19:45:20.100Z,21.60
2019-03-18T19:47:48.475Z,21.60
2019-03-18T19:50:24.928Z,21.58
2019-03-18T19:52:53.316Z,21.57
2019-03-18T19:55:21.683Z,21.57
2019-03-18T19:57:50.046Z,21.57
2019-03-18T20:00:26.551Z,21.56
2019-03-18T20:02:55.004Z,21.55
2019-03-18T20:05:23.448Z,21.54
2019-03-18T20:07:51.821Z,21.53
2019-03-18T20:10:23.484Z,21.55
2019-03-18T20:12:52.183Z,21.52
2019-03-18T20:15:20.819Z,21.51
2019-03-18T20:17:49.350Z,21.48
2019-03-18T20:20:18.695Z,21.49
2019-03-18T20:22:47.319Z,21.46
2019-03-18T20:25:16.159Z,21.48
2019-03-18T20:27:44.523Z,21.47
2019-03-18T20:30:20.094Z,21.46
2019-03-18T20:32:48.601Z,21.45
2019-03-18T20:35:21.054Z,21.43
2019-03-18T20:37:51.940Z,21.42
2019-03-18T20:40:19.664Z,21.42
2019-03-18T20:42:48.086Z,21.40
2019-03-18T20:45:21.627Z,21.40
2019-03-18T20:47:49.996Z,21.38
2019-03-18T20:50:20.370Z,21.37
2019-03-18T20:52:48.925Z,21.38
2019-03-18T20:55:17.778Z,21.36
2019-03-18T20:57:46.219Z,21.36
2019-03-18T21:00:16.797Z,21.39
2019-03-18T21:02:45.165Z,21.35
2019-03-18T21:05:13.536Z,21.32
2019-03-18T21:07:41.901Z,21.31
2019-03-18T21:10:12.214Z,21.31
2019-03-18T21:12:41.474Z,21.30
2019-03-18T21:15:11.846Z,21.29
2019-03-18T21:17:40.371Z,21.30
2019-03-18T21:20:16.487Z,21.27
2019-03-18T21:22:44.860Z,21.28
2019-03-18T21:25:13.887Z,21.27
2019-03-18T21:27:42.253Z,21.25
2019-03-18T21:30:18.428Z,21.27
2019-03-18T21:32:46.939Z,21.24
2019-03-18T21:35:15.255Z,21.23
2019-03-18T21:37:43.783Z,21.23
2019-03-18T21:40:17.293Z,21.18
2019-03-18T21:42:45.667Z,21.20
2019-03-18T21:45:17.085Z,21.19
2019-03-18T21:47:45.563Z,21.18
2019-03-18T21:50:15.731Z,21.17
2019-03-18T21:52:44.251Z,21.15
2019-03-18T21:55:13.262Z,21.14
2019-03-18T21:57:41.630Z,21.13
2019-03-18T22:00:15.296Z,21.14
2019-03-18T22:02:43.658Z,21.12
2019-03-18T22:05:12.093Z,21.11
2019-03-18T22:07:40.567Z,21.08
2019-03-18T22:10:16.771Z,21.09
2019-03-18T22:12:46.084Z,21.08
2019-03-18T22:15:14.876Z,21.08
2019-03-18T22:17:43.421Z,21.06
2019-03-18T22:20:21.643Z,21.06
2019-03-18T22:22:50.101Z,21.05
2019-03-18T22:25:18.484Z,21.01
2019-03-18T22:27:46.945Z,21.01
2019-03-18T22:30:17.326Z,21.01
2019-03-18T22:32:45.704Z,21.02
2019-03-18T22:35:14.203Z,21.00
2019-03-18T22:37:42.646Z,20.98
2019-03-18T22:40:15.406Z,20.97
2019-03-18T22:42:43.857Z,20.97
2019-03-18T22:45:13.359Z,20.95
2019-03-18T22:47:41.747Z,20.93
2019-03-18T22:50:11.478Z,20.90
2019-03-18T22:52:39.865Z,20.91
2019-03-18T22:55:10.165Z,20.90
2019-03-18T22:57:39.219Z,20.88
2019-03-18T23:00:14.767Z,20.88
2019-03-18T23:02:43.146Z,20.86
2019-03-18T23:05:14.240Z,20.85
2019-03-18T23:07:42.629Z,20.84
2019-03-18T23:10:11.075Z,20.85
2019-03-18T23:12:39.458Z,20.84
2019-03-18T23:15:09.727Z,20.81
2019-03-18T23:17:38.255Z,20.80
2019-03-18T23:20:07.449Z,20.79
2019-03-18T23:22:35.835Z,20.77
2019-03-18T23:25:07.783Z,20.75
2019-03-18T23:27:35.636Z,20.76
2019-03-18T23:30:05.780Z,20.75
2019-03-18T23:32:34.152Z,20.74
2019-03-18T23:35:02.586Z,20.71
2019-03-18T23:37:30.959Z,20.70
2019-03-18T23:39:59.318Z,20.67
2019-03-18T23:42:27.687Z,20.65
2019-03-18T23:44:56.064Z,20.66
2019-03-18T23:47:24.444Z,20.63
2019-03-18T23:49:52.810Z,20.63
2019-03-18T23:52:21.306Z,20.63
2019-03-18T23:54:49.692Z,20.60
2019-03-18T23:57:18.063Z,20.62
2019-03-18T23:59:46.428Z,20.60
